Time;durP1;ratioP1;P1;durP2;ratioP2;P2;SDS_P1;SDS_P2;PMS_P1;PMS_P2;Temp;Humidity;BMP_temperature;BMP_pressure;BME280_temperature;BME280_humidity;BME280_pressure;Samples;Min_cycle;Max_cycle;Signal;HPM_P1;HPM_P2
2024/02/15 00:02:27;;;;;;;8.43;7.63;;;9.80;99.90;;;9.47;100.00;98393.78;5051711;28;20613;-78
2024/02/15 00:04:54;;;;;;;7.07;6.33;;;9.80;99.80;;;9.50;100.00;98387.16;5069122;28;20445;-75
2024/02/15 00:07:22;;;;;;;11.27;7.37;;;9.80;99.60;;;9.41;100.00;98399.13;5064191;28;20462;-75
2024/02/15 00:09:49;;;;;;;8.10;6.60;;;9.70;99.90;;;9.49;100.00;98378.22;5068649;28;20454;-77
2024/02/15 00:12:16;;;;;;;6.90;6.07;;;9.70;99.90;;;9.50;100.00;98390.66;5051753;28;20964;-76
2024/02/15 00:14:45;;;;;;;7.33;6.57;;;9.80;99.70;;;9.50;100.00;98392.53;5051105;28;20437;-77
2024/02/15 00:17:13;;;;;;;7.50;6.87;;;9.80;99.50;;;9.45;100.00;98386.91;5070505;28;20831;-78
2024/02/15 00:19:41;;;;;;;8.90;6.10;;;9.80;99.30;;;9.43;100.00;98391.66;5069435;28;20463;-78
2024/02/15 00:22:09;;;;;;;6.83;6.13;;;9.80;99.10;;;9.45;100.00;98389.59;5071149;28;20549;-75
2024/02/15 00:24:38;;;;;;;6.60;5.70;;;9.90;99.30;;;9.56;100.00;98389.03;5069845;28;20485;-75
2024/02/15 00:27:05;;;;;;;7.00;6.30;;;9.90;99.00;;;9.59;100.00;98379.72;5068492;28;21225;-77
2024/02/15 00:29:34;;;;;;;7.80;6.50;;;9.90;99.50;;;9.61;100.00;98378.47;5064045;28;20433;-77
2024/02/15 00:32:03;;;;;;;6.20;5.60;;;9.90;99.00;;;9.46;100.00;98380.47;5069499;28;20458;-76
2024/02/15 00:34:30;;;;;;;6.30;5.70;;;9.90;98.60;;;9.50;100.00;98374.47;5068795;28;20957;-77
2024/02/15 00:36:59;;;;;;;6.87;5.90;;;9.80;99.00;;;9.53;100.00;98377.81;5067569;28;20466;-77
2024/02/15 00:39:26;;;;;;;7.90;6.03;;;9.90;99.10;;;9.53;100.00;98373.25;5066568;28;20454;-75
2024/02/15 00:41:55;;;;;;;7.03;5.60;;;9.90;98.90;;;9.52;100.00;98371.59;5051150;28;20469;-76
2024/02/15 00:44:22;;;;;;;5.83;5.23;;;9.80;98.70;;;9.61;100.00;98375.78;5050244;28;20469;-75
2024/02/15 00:51:31;;;;;;;9.20;6.00;;;9.90;98.40;;;9.56;100.00;98383.66;5067802;28;20457;-79
2024/02/15 00:53:59;;;;;;;7.00;5.97;;;9.90;98.50;;;9.55;100.00;98381.97;5063649;28;20458;-77
2024/02/15 00:56:27;;;;;;;8.27;5.93;;;9.90;98.60;;;9.67;100.00;98370.63;5068614;28;20451;-78
2024/02/15 00:58:54;;;;;;;6.47;5.87;;;9.90;99.00;;;9.66;100.00;98375.19;5049157;28;21015;-76
2024/02/15 01:01:21;;;;;;;7.10;6.40;;;9.90;98.30;;;9.69;99.92;98374.78;5049990;28;20452;-74
2024/02/15 01:03:49;;;;;;;6.37;5.80;;;10.00;97.60;;;9.70;100.00;98375.63;5049983;28;20491;-74
2024/02/15 01:06:17;;;;;;;8.07;6.57;;;10.00;97.60;;;9.60;100.00;98366.03;5068927;28;20852;-75
2024/02/15 01:08:44;;;;;;;7.33;5.90;;;10.00;97.50;;;9.61;100.00;98367.69;5067472;28;20449;-76
2024/02/15 01:11:13;;;;;;;6.37;5.77;;;10.00;97.10;;;9.63;100.00;98373.75;5067609;28;20548;-76
2024/02/15 01:13:41;;;;;;;6.50;5.63;;;10.00;97.20;;;9.70;100.00;98371.03;5067965;28;20532;-76
2024/02/15 01:16:08;;;;;;;6.17;5.67;;;10.00;97.40;;;9.63;99.47;98376.44;5068643;28;20469;-75
2024/02/15 01:18:37;;;;;;;7.10;6.33;;;9.90;97.40;;;9.90;98.52;98370.31;5067156;28;21020;-76
2024/02/15 01:21:06;;;;;;;8.10;5.80;;;10.00;97.40;;;9.70;98.82;98371.03;5044165;28;20520;-77
2024/02/15 01:23:35;;;;;;;5.37;4.97;;;10.00;96.90;;;9.58;100.00;98368.09;5068087;28;20823;-77
2024/02/15 01:26:02;;;;;;;6.87;6.17;;;10.00;97.10;;;9.71;99.40;98377.28;5067619;28;20452;-77
2024/02/15 01:28:32;;;;;;;6.97;6.27;;;10.00;97.00;;;9.74;98.33;98375.03;5064946;28;20486;-75
2024/02/15 01:30:59;;;;;;;6.60;6.00;;;10.00;96.80;;;9.65;98.97;98373.50;5067899;28;20457;-78
2024/02/15 01:33:26;;;;;;;6.57;5.97;;;10.00;96.60;;;9.69;99.61;98373.94;5048708;28;20503;-77
2024/02/15 01:35:53;;;;;;;6.00;5.40;;;10.00;96.70;;;9.74;99.17;98371.47;5067356;28;20446;-77
2024/02/15 01:38:21;;;;;;;6.57;5.97;;;10.00;96.80;;;9.64;99.20;98367.31;5066809;28;20446;-77
2024/02/15 01:40:48;;;;;;;6.60;5.90;;;10.00;96.40;;;9.60;99.95;98362.50;5067853;28;20460;-74
2024/02/15 01:43:16;;;;;;;7.33;6.63;;;9.90;97.40;;;9.70;98.67;98364.81;5049326;28;20471;-76
2024/02/15 01:45:46;;;;;;;6.47;5.87;;;10.00;96.80;;;9.66;99.15;98358.19;5067608;28;20940;-76
2024/02/15 01:48:14;;;;;;;6.97;6.27;;;10.00;96.60;;;9.63;99.41;98365.63;5046191;28;20482;-75
2024/02/15 01:50:42;;;;;;;5.90;5.40;;;9.90;97.50;;;9.70;98.93;98362.94;5064004;28;20464;-76
2024/02/15 01:53:12;;;;;;;7.47;6.03;;;9.90;98.00;;;9.77;98.13;98369.22;5067206;28;20533;-75
2024/02/15 01:55:40;;;;;;;6.23;5.73;;;9.90;97.80;;;9.60;98.75;98349.84;5069112;28;20950;-73
2024/02/15 01:58:08;;;;;;;6.23;5.63;;;9.90;97.20;;;9.62;99.69;98363.94;5052652;28;20551;-77
2024/02/15 02:00:36;;;;;;;6.67;6.07;;;9.90;97.70;;;9.56;99.58;98363.94;5063824;28;20452;-75
2024/02/15 02:03:07;;;;;;;6.73;6.10;;;9.90;97.60;;;9.39;100.00;98371.53;5049029;28;20473;-71
2024/02/15 02:05:34;;;;;;;8.93;6.50;;;9.80;98.00;;;9.49;100.00;98356.63;5068026;28;20454;-77
2024/02/15 02:08:04;;;;;;;7.37;6.17;;;9.80;98.40;;;9.38;100.00;98361.78;5066742;28;20456;-72
2024/02/15 02:10:33;;;;;;;6.90;6.20;;;9.80;98.20;;;9.32;100.00;98363.41;5067857;28;20968;-76
2024/02/15 02:13:02;;;;;;;7.03;6.43;;;9.70;98.80;;;9.30;100.00;98363.59;5067649;28;20819;-73
2024/02/15 02:15:31;;;;;;;6.93;6.23;;;9.70;99.00;;;9.25;100.00;98359.81;5063015;28;20466;-76
2024/02/15 02:17:59;;;;;;;8.00;6.57;;;9.70;99.30;;;9.13;100.00;98360.38;5066863;28;20457;-76
2024/02/15 02:20:28;;;;;;;7.50;6.70;;;9.60;99.30;;;9.21;100.00;98359.41;5067318;28;20468;-75
2024/02/15 02:23:07;;;;;;;7.37;6.67;;;9.60;99.90;;;9.13;100.00;98349.59;5067179;28;21281;-77
2024/02/15 02:25:35;;;;;;;7.40;6.70;;;9.60;99.90;;;9.24;100.00;98350.91;5067440;28;20494;-76
2024/02/15 02:28:02;;;;;;;7.47;6.53;;;9.60;99.90;;;8.85;100.00;98283.09;5046736;28;20491;-71
2024/02/15 02:30:30;;;;;;;7.97;7.17;;;9.60;99.90;;;9.31;100.00;98357.16;5067371;28;20892;-77
2024/02/15 02:32:58;;;;;;;6.77;6.03;;;9.60;99.90;;;9.23;100.00;98354.63;5049100;28;20453;-74
2024/02/15 02:35:26;;;;;;;6.90;6.20;;;9.60;99.90;;;9.23;100.00;98360.03;5066572;28;20458;-75
2024/02/15 02:37:54;;;;;;;6.90;5.97;;;9.60;99.90;;;9.27;100.00;98360.47;5067993;28;20453;-75
2024/02/15 02:40:21;;;;;;;7.90;7.13;;;9.60;99.90;;;9.14;100.00;98347.72;5070966;28;20445;-76
2024/02/15 02:42:52;;;;;;;8.30;7.20;;;9.60;99.90;;;9.30;100.00;98350.09;5068402;28;20475;-75
2024/02/15 02:45:22;;;;;;;6.83;6.13;;;9.60;99.90;;;9.38;100.00;98351.00;5067976;28;20463;-77
2024/02/15 02:47:49;;;;;;;7.30;6.70;;;9.60;99.90;;;9.28;100.00;98348.66;5054495;28;21205;-75
2024/02/15 02:50:17;;;;;;;7.43;6.77;;;9.60;99.90;;;9.25;100.00;98357.13;5068886;28;20445;-75
2024/02/15 02:52:44;;;;;;;7.87;6.73;;;9.60;99.90;;;9.07;100.00;98343.13;5068141;28;20459;-76
2024/02/15 02:55:11;;;;;;;8.10;7.03;;;9.50;99.90;;;9.25;100.00;98357.97;5068715;28;20511;-73
2024/02/15 02:57:39;;;;;;;8.37;7.57;;;9.60;99.90;;;9.30;100.00;98347.41;5066892;28;20454;-74
2024/02/15 03:00:12;;;;;;;8.00;7.30;;;9.60;99.90;;;9.29;100.00;98355.72;5064515;28;20836;-76
2024/02/15 03:02:40;;;;;;;8.43;7.33;;;9.60;99.90;;;9.34;100.00;98364.03;5063240;28;20482;-75
2024/02/15 03:05:10;;;;;;;7.23;6.60;;;9.60;99.90;;;9.15;100.00;98368.25;5047788;28;20465;-76
2024/02/15 03:07:38;;;;;;;7.87;6.83;;;9.60;99.90;;;9.22;100.00;98358.38;5065254;28;20559;-77
2024/02/15 03:10:08;;;;;;;9.43;7.17;;;9.60;99.90;;;9.19;100.00;98358.78;5051250;28;20942;-76
2024/02/15 03:12:36;;;;;;;8.90;7.03;;;9.60;99.90;;;9.21;100.00;98362.09;5065514;28;20456;-77
2024/02/15 03:15:04;;;;;;;9.53;6.73;;;9.60;99.90;;;9.02;100.00;98364.47;5065788;28;20703;-76
2024/02/15 03:17:33;;;;;;;7.20;6.47;;;9.50;99.90;;;9.09;100.00;98359.09;5066274;28;20442;-76
2024/02/15 03:20:00;;;;;;;7.60;6.80;;;9.50;99.90;;;9.16;100.00;98353.75;5065892;28;20462;-74
2024/02/15 03:22:29;;;;;;;8.37;7.50;;;9.50;99.90;;;9.29;100.00;98358.41;5066607;28;20470;-77
2024/02/15 03:24:57;;;;;;;6.93;6.33;;;9.60;99.90;;;9.34;100.00;98361.34;5066296;28;20454;-77
2024/02/15 03:27:24;;;;;;;7.07;6.47;;;9.60;99.90;;;9.28;100.00;98357.56;5050979;28;20485;-73
2024/02/15 03:29:52;;;;;;;6.63;6.00;;;9.60;99.90;;;9.34;100.00;98356.78;5069663;28;20453;-77
2024/02/15 03:32:21;;;;;;;7.27;6.57;;;9.50;99.90;;;9.39;100.00;98358.03;5068820;28;20593;-78
2024/02/15 03:34:49;;;;;;;8.10;6.77;;;9.60;99.90;;;9.41;100.00;98356.81;5069326;28;20459;-78
2024/02/15 03:37:18;;;;;;;11.90;6.20;;;9.60;99.90;;;9.29;100.00;98347.63;5070127;28;20486;-77
2024/02/15 03:39:45;;;;;;;8.80;7.80;;;9.60;99.90;;;9.20;100.00;98338.88;5069432;28;20586;-77
2024/02/15 03:42:13;;;;;;;7.10;6.50;;;9.60;99.90;;;9.33;100.00;98355.13;5070498;28;20519;-78
2024/02/15 03:44:41;;;;;;;6.60;6.00;;;9.60;99.90;;;9.30;100.00;98355.50;5065818;28;20483;-71
2024/02/15 03:47:08;;;;;;;6.77;6.03;;;9.60;99.90;;;9.21;100.00;98341.34;5070145;28;20468;-78
2024/02/15 03:49:35;;;;;;;7.00;5.80;;;9.60;99.90;;;9.30;100.00;98352.81;5051519;28;21014;-75
2024/02/15 03:52:05;;;;;;;7.00;6.30;;;9.60;99.90;;;9.17;100.00;98352.72;5070199;28;20464;-77
2024/02/15 03:54:32;;;;;;;7.27;6.03;;;9.50;99.90;;;9.30;100.00;98351.97;5069351;28;20459;-77
2024/02/15 03:56:59;;;;;;;6.53;5.77;;;9.60;99.90;;;9.20;100.00;98355.03;5070002;28;20498;-76
2024/02/15 03:59:27;;;;;;;5.20;4.70;;;9.50;99.90;;;9.12;100.00;98365.97;5050673;28;20508;-76
2024/02/15 04:01:55;;;;;;;6.63;5.93;;;9.40;99.90;;;9.13;100.00;98364.94;5069822;28;20482;-78
2024/02/15 04:04:22;;;;;;;6.63;5.90;;;9.40;99.90;;;9.11;100.00;98348.13;5050799;28;20471;-76
2024/02/15 04:06:50;;;;;;;7.03;6.33;;;9.50;99.90;;;9.05;100.00;98353.28;5070313;28;20449;-78
2024/02/15 04:09:20;;;;;;;6.73;6.07;;;9.40;99.90;;;9.04;100.00;98348.94;5051922;28;20458;-77
2024/02/15 04:11:52;;;;;;;6.80;6.20;;;9.40;99.90;;;9.07;100.00;98351.22;5051849;28;20561;-75
2024/02/15 04:14:20;;;;;;;6.37;5.77;;;9.40;99.90;;;8.97;100.00;98350.75;5051194;28;20910;-77
2024/02/15 04:16:47;;;;;;;6.97;6.33;;;9.30;99.90;;;8.90;100.00;98347.19;5069688;28;20453;-74
2024/02/15 04:19:14;;;;;;;8.63;7.80;;;9.20;99.90;;;8.84;100.00;98353.34;5068369;28;20471;-75
2024/02/15 04:21:44;;;;;;;7.23;5.77;;;9.10;99.90;;;8.65;100.00;98355.69;5068627;28;20453;-75
2024/02/15 04:24:11;;;;;;;6.80;6.10;;;9.00;99.90;;;8.56;100.00;98354.16;5069373;28;20476;-75
2024/02/15 04:26:40;;;;;;;9.03;5.87;;;9.00;99.90;;;8.46;100.00;98366.06;5051786;28;20452;-77
2024/02/15 04:29:08;;;;;;;7.13;6.10;;;8.90;99.90;;;8.38;100.00;98360.81;5064507;28;20643;-78
2024/02/15 04:31:39;;;;;;;7.33;6.63;;;8.70;99.90;;;8.31;100.00;98368.00;5069676;28;20449;-74
2024/02/15 04:34:06;;;;;;;6.30;5.70;;;8.60;99.90;;;8.21;100.00;98352.97;5068772;28;20499;-75
2024/02/15 04:36:34;;;;;;;7.20;6.50;;;8.50;99.90;;;8.16;100.00;98350.03;5073593;28;20489;-76
2024/02/15 04:39:02;;;;;;;7.97;6.80;;;8.40;99.90;;;8.08;100.00;98355.53;5066712;28;20658;-76
2024/02/15 04:41:30;;;;;;;7.60;6.70;;;8.30;99.90;;;8.00;100.00;98366.44;5066993;28;20544;-74
2024/02/15 04:43:58;;;;;;;7.60;6.90;;;8.20;99.90;;;8.04;100.00;98370.41;5067334;28;20484;-77
2024/02/15 04:46:26;;;;;;;8.50;6.50;;;8.20;99.90;;;8.06;100.00;98371.03;5069269;28;20526;-76
2024/02/15 04:48:53;;;;;;;7.70;7.00;;;8.30;99.90;;;8.07;100.00;98372.72;5069005;28;20503;-78
2024/02/15 04:51:21;;;;;;;9.10;7.40;;;8.30;99.90;;;8.15;100.00;98369.06;5059626;28;20456;-77
2024/02/15 04:53:49;;;;;;;7.50;6.80;;;8.30;99.90;;;8.20;100.00;98362.09;5081748;28;20937;-76
2024/02/15 04:56:16;;;;;;;7.60;6.80;;;8.40;99.90;;;8.33;100.00;98361.38;5085501;28;20457;-75
2024/02/15 04:58:47;;;;;;;8.00;6.80;;;8.50;99.90;;;8.31;100.00;98362.59;5077189;28;20917;-76
2024/02/15 05:01:17;;;;;;;9.20;7.80;;;8.50;99.90;;;8.37;100.00;98356.44;5069435;28;20461;-75
2024/02/15 05:03:45;;;;;;;8.90;8.03;;;8.60;99.90;;;8.47;100.00;98362.34;5067638;28;20481;-75
2024/02/15 05:06:13;;;;;;;9.07;8.17;;;8.70;99.90;;;8.49;100.00;98352.22;5069077;28;20453;-77
2024/02/15 05:08:43;;;;;;;8.30;7.50;;;8.70;99.90;;;8.55;100.00;98357.88;5050443;28;20455;-76
2024/02/15 05:11:15;;;;;;;8.77;7.87;;;8.80;99.90;;;8.58;100.00;98363.72;5066580;28;20454;-76
2024/02/15 05:13:42;;;;;;;12.90;7.80;;;8.80;99.90;;;8.42;100.00;98359.41;5050805;28;20448;-76
2024/02/15 05:16:09;;;;;;;9.03;8.13;;;8.80;99.90;;;8.42;100.00;98362.09;5069046;28;20933;-77
2024/02/15 05:18:39;;;;;;;8.50;7.80;;;8.70;99.90;;;8.47;100.00;98356.09;5051713;28;20501;-76
2024/02/15 05:21:09;;;;;;;7.73;6.90;;;8.70;99.90;;;8.49;100.00;98357.59;5063982;28;20459;-75
2024/02/15 05:23:37;;;;;;;8.07;7.07;;;8.80;99.90;;;8.55;100.00;98352.47;5068307;28;20508;-77
2024/02/15 05:26:05;;;;;;;6.77;6.17;;;8.80;99.90;;;8.56;100.00;98354.16;5050859;28;20944;-76
2024/02/15 05:28:32;;;;;;;7.60;6.80;;;8.80;99.90;;;8.39;100.00;98359.78;5042042;28;20482;-79
2024/02/15 05:31:20;;;;;;;9.27;6.90;;;8.80;99.90;;;8.50;100.00;98361.97;5068335;28;20938;-72
2024/02/15 05:33:48;;;;;;;7.63;6.50;;;8.90;99.90;;;8.53;100.00;98365.31;5063407;28;20549;-76
2024/02/15 05:36:19;;;;;;;8.23;7.30;;;8.90;99.90;;;8.58;100.00;98354.81;5049798;28;20708;-75
2024/02/15 05:38:47;;;;;;;8.13;7.33;;;8.90;99.90;;;8.69;100.00;98364.22;5063567;28;20849;-74
2024/02/15 05:41:14;;;;;;;9.33;6.80;;;9.00;99.90;;;8.78;100.00;98363.88;5050698;28;20483;-76
2024/02/15 05:43:42;;;;;;;8.47;6.67;;;9.00;99.90;;;8.92;100.00;98362.09;5067161;28;20484;-74
2024/02/15 05:46:09;;;;;;;9.17;6.80;;;9.10;99.90;;;8.93;100.00;98360.25;5060434;28;20449;-75
2024/02/15 05:48:37;;;;;;;6.77;5.70;;;9.20;99.90;;;8.88;100.00;98360.03;5066777;28;20447;-76
2024/02/15 05:51:08;;;;;;;10.00;5.90;;;9.20;99.90;;;8.74;100.00;98368.00;5068026;28;20518;-73
2024/02/15 05:53:36;;;;;;;7.07;5.57;;;9.20;99.90;;;8.90;100.00;98355.25;5045937;28;20470;-74
2024/02/15 05:56:05;;;;;;;6.30;5.70;;;9.20;99.90;;;8.83;100.00;98359.75;5068058;28;20446;-74
2024/02/15 05:58:32;;;;;;;6.90;6.20;;;9.20;99.90;;;8.73;100.00;98355.56;5066733;28;21114;-76
2024/02/15 06:01:01;;;;;;;7.30;6.43;;;9.10;99.90;;;8.73;100.00;98360.94;5066432;28;20460;-75
2024/02/15 06:03:29;;;;;;;7.70;6.20;;;9.20;99.90;;;8.69;100.00;98356.94;5049372;28;20528;-75
2024/02/15 06:05:58;;;;;;;9.63;6.80;;;9.20;99.90;;;8.74;100.00;98354.53;5065274;28;20590;-75
2024/02/15 06:08:26;;;;;;;6.87;6.17;;;9.20;99.90;;;8.61;100.00;98362.50;5066794;28;20545;-76
2024/02/15 06:10:54;;;;;;;6.30;5.50;;;9.10;99.90;;;8.71;100.00;98362.16;5065091;28;20491;-77
2024/02/15 06:13:22;;;;;;;8.37;6.37;;;9.10;99.90;;;8.90;100.00;98363.34;5067612;28;20462;-77
2024/02/15 06:15:52;;;;;;;6.20;5.60;;;9.20;99.90;;;8.81;100.00;98361.81;5070844;28;20481;-78
2024/02/15 06:18:21;;;;;;;6.50;5.90;;;9.20;99.90;;;8.85;100.00;98369.31;5077385;28;20456;-75
2024/02/15 06:20:50;;;;;;;7.60;6.80;;;9.20;99.90;;;8.83;100.00;98370.53;5078867;28;20961;-75
2024/02/15 06:23:18;;;;;;;9.20;7.10;;;9.20;99.90;;;8.75;100.00;98368.81;5064619;28;20547;-76
2024/02/15 06:25:48;;;;;;;6.33;5.77;;;9.20;99.90;;;8.81;100.00;98377.97;5067524;28;20449;-76
2024/02/15 06:39:37;;;;;;;6.83;6.00;;;9.20;99.80;;;8.81;100.00;98373.44;5064300;28;20450;-75
2024/02/15 06:39:44;;;;;;;6.23;5.63;;;9.20;99.00;;;8.82;100.00;98375.09;5060639;28;20551;-78
2024/02/15 06:42:16;;;;;;;6.30;5.60;;;9.30;98.80;;;8.92;100.00;98374.75;5043791;28;20445;-76
2024/02/15 06:44:43;;;;;;;7.50;5.90;;;9.30;98.80;;;8.65;100.00;98326.06;5068841;28;20475;-75
2024/02/15 06:47:11;;;;;;;8.10;6.00;;;9.30;98.50;;;8.90;100.00;98374.13;5050836;28;20465;-75
2024/02/15 06:49:40;;;;;;;6.97;6.33;;;9.30;98.40;;;9.09;100.00;98374.44;5066172;28;20459;-76
2024/02/15 06:52:08;;;;;;;8.97;5.93;;;9.30;99.00;;;9.17;100.00;98383.22;5062257;28;20525;-78
2024/02/15 06:54:36;;;;;;;6.53;5.93;;;9.40;98.80;;;8.89;98.89;98321.25;5028047;28;20443;-75
2024/02/15 06:57:05;;;;;;;7.50;5.73;;;9.50;98.40;;;9.11;98.92;98380.47;5049391;28;20960;-77
2024/02/15 06:59:34;;;;;;;7.10;6.23;;;9.50;97.10;;;9.04;100.00;98377.75;5066195;28;20454;-76
2024/02/15 07:02:04;;;;;;;6.20;5.30;;;9.40;97.30;;;9.29;99.14;98385.38;5075104;28;20581;-77
2024/02/15 07:04:32;;;;;;;6.50;5.90;;;9.50;97.20;;;8.90;99.33;98339.09;5070462;28;21053;-76
2024/02/15 07:07:01;;;;;;;7.00;5.47;;;9.50;96.60;;;9.31;98.54;98386.81;5069599;28;20466;-76
2024/02/15 07:09:28;;;;;;;6.90;5.00;;;9.60;96.60;;;9.34;98.31;98383.75;5069366;28;20455;-76
2024/02/15 07:11:57;;;;;;;6.70;6.00;;;9.60;96.60;;;9.39;98.21;98375.03;5074752;28;20465;-78
2024/02/15 07:14:25;;;;;;;7.40;5.40;;;9.80;96.10;;;9.48;96.59;98383.81;5072564;28;20465;-76
2024/02/15 07:16:56;;;;;;;8.00;6.13;;;9.80;95.40;;;9.18;96.54;98335.53;5054924;28;20512;-77
2024/02/15 07:19:23;;;;;;;8.63;6.60;;;9.80;95.20;;;9.75;94.17;98376.69;5072435;28;20595;-75
2024/02/15 07:21:51;;;;;;;6.50;5.90;;;10.10;94.30;;;9.69;95.12;98365.88;5055868;28;20519;-77
2024/02/15 07:24:19;;;;;;;5.70;5.20;;;10.10;93.60;;;9.44;96.12;98361.81;5051521;28;20590;-77
2024/02/15 07:26:46;;;;;;;6.77;5.13;;;9.90;94.30;;;9.53;95.18;98384.06;5070955;28;20458;-77
2024/02/15 07:29:15;;;;;;;5.30;4.80;;;9.90;94.40;;;9.42;95.86;98379.22;5047765;28;21003;-75
2024/02/15 07:31:42;;;;;;;4.80;4.30;;;9.80;94.20;;;9.35;95.53;98380.03;5070934;28;20477;-76
2024/02/15 07:34:11;;;;;;;7.80;5.13;;;9.80;94.40;;;9.56;95.09;98380.94;5072075;28;20439;-77
2024/02/15 07:36:41;;;;;;;7.03;5.40;;;9.80;94.60;;;9.55;94.78;98376.59;5076084;28;20461;-77
2024/02/15 07:39:12;;;;;;;6.90;5.30;;;9.80;94.40;;;9.58;94.74;98386.16;5060985;28;20449;-77
2024/02/15 07:41:39;;;;;;;5.10;4.60;;;9.90;94.60;;;9.57;95.53;98371.81;5069894;28;20510;-77
2024/02/15 07:44:08;;;;;;;7.13;5.03;;;9.90;94.60;;;9.58;95.80;98383.47;5067585;28;20840;-77
2024/02/15 07:46:37;;;;;;;5.50;4.73;;;9.80;94.60;;;9.46;95.15;98366.97;5069908;28;20986;-77
2024/02/15 07:49:05;;;;;;;7.40;5.20;;;9.90;94.50;;;9.56;94.86;98388.22;5050187;28;20456;-77
2024/02/15 07:51:34;;;;;;;5.17;4.70;;;9.90;94.20;;;9.77;93.97;98381.84;5070110;28;20474;-77
2024/02/15 07:54:02;;;;;;;5.73;4.80;;;10.00;94.00;;;9.77;94.59;98384.56;5066535;28;20466;-76
2024/02/15 07:56:29;;;;;;;5.70;5.20;;;10.00;94.00;;;9.92;93.33;98384.44;5070109;28;20994;-77
2024/02/15 07:58:56;;;;;;;6.17;4.50;;;10.10;93.80;;;9.96;93.38;98388.38;5052381;28;20459;-77
2024/02/15 08:01:24;;;;;;;6.07;4.60;;;10.10;93.70;;;10.14;92.67;98376.16;5069820;28;20455;-78
2024/02/15 08:03:52;;;;;;;5.23;4.83;;;10.20;93.60;;;9.89;93.62;98379.44;5050384;28;20454;-77
2024/02/15 08:06:20;;;;;;;6.43;5.60;;;10.20;92.90;;;10.07;92.96;98386.94;5069874;28;20517;-76
2024/02/15 08:08:49;;;;;;;5.53;5.03;;;10.30;93.20;;;10.29;91.27;98376.81;5068420;28;20453;-76
2024/02/15 08:11:16;;;;;;;10.37;4.37;;;10.40;92.80;;;10.47;89.46;98375.47;5069433;28;20943;-76
2024/02/15 08:13:49;;;;;;;5.87;4.47;;;10.60;92.50;;;10.57;89.63;98375.88;5069004;28;20460;-76
2024/02/15 08:16:17;;;;;;;5.70;4.70;;;10.70;92.10;;;10.57;89.54;98375.88;5069193;28;20571;-75
2024/02/15 08:18:47;;;;;;;5.50;4.80;;;10.70;91.90;;;10.49;89.09;98374.19;5063708;28;20540;-77
2024/02/15 08:21:14;;;;;;;5.20;4.30;;;10.80;91.40;;;10.80;87.96;98371.09;5068977;28;20847;-76
2024/02/15 08:23:42;;;;;;;10.70;5.10;;;10.90;91.50;;;10.60;88.37;98366.53;5065157;28;20466;-76
2024/02/15 08:26:11;;;;;;;4.90;4.40;;;10.90;91.30;;;10.55;88.74;98367.13;5046239;28;20481;-78
2024/02/15 08:28:39;;;;;;;5.80;5.20;;;10.80;91.20;;;10.47;88.80;98357.38;5064879;28;21049;-77
2024/02/15 08:31:07;;;;;;;5.73;4.37;;;10.80;91.10;;;10.36;88.50;98368.75;5069668;28;20489;-77
2024/02/15 08:33:36;;;;;;;5.77;5.17;;;10.90;90.90;;;10.80;87.97;98352.16;5069324;28;20449;-77
2024/02/15 08:36:03;;;;;;;4.80;4.33;;;10.90;91.10;;;10.79;87.29;98351.34;5051848;28;20449;-77
2024/02/15 08:38:31;;;;;;;7.63;5.40;;;11.00;90.90;;;10.75;87.37;98353.63;5068050;28;20550;-76
2024/02/15 08:40:58;;;;;;;7.77;4.73;;;11.00;90.70;;;10.72;87.83;98355.91;5072928;28;20446;-76
2024/02/15 08:43:27;;;;;;;6.10;5.23;;;11.00;90.70;;;10.47;88.99;98351.97;5068883;28;20472;-76
2024/02/15 08:45:54;;;;;;;5.97;4.60;;;10.90;90.70;;;10.76;88.00;98349.88;5068829;28;20559;-77
2024/02/15 08:48:22;;;;;;;5.87;4.30;;;11.00;90.90;;;10.71;87.51;98347.00;5067715;28;20457;-76
2024/02/15 08:50:50;;;;;;;8.80;4.70;;;11.00;90.80;;;10.83;87.07;98347.19;5068721;28;20456;-78
2024/02/15 08:53:19;;;;;;;5.47;4.60;;;11.00;90.70;;;10.65;86.12;98301.06;5051063;28;20442;-76
2024/02/15 08:55:46;;;;;;;5.00;4.20;;;11.10;90.60;;;10.76;86.31;98344.47;5051282;28;20801;-76
2024/02/15 08:58:13;;;;;;;5.40;4.90;;;11.10;90.40;;;10.70;86.71;98321.00;5033413;28;20443;-75
2024/02/15 09:00:44;;;;;;;6.57;4.83;;;11.20;90.60;;;10.91;86.87;98343.44;5069397;28;20445;-77
2024/02/15 09:03:11;;;;;;;4.93;4.40;;;11.20;90.60;;;10.97;85.98;98339.06;5042531;28;20986;-75
2024/02/15 09:05:40;;;;;;;6.60;5.27;;;11.20;90.40;;;10.98;85.39;98338.84;5050702;28;20467;-76
2024/02/15 09:08:08;;;;;;;7.90;5.10;;;11.20;90.40;;;10.63;87.48;98306.66;5049620;28;20946;-76
2024/02/15 09:10:36;;;;;;;12.83;6.40;;;11.10;90.40;;;11.17;86.19;98342.56;5050622;28;20458;-78
2024/02/15 09:13:03;;;;;;;6.13;5.17;;;11.30;90.50;;;11.11;85.35;98331.75;5062124;28;20453;-76
2024/02/15 09:15:31;;;;;;;5.17;4.37;;;11.50;90.30;;;11.28;85.12;98338.34;5068507;28;20457;-77
2024/02/15 09:18:00;;;;;;;5.53;4.80;;;11.50;90.10;;;11.64;83.34;98343.47;5049680;28;20447;-78
2024/02/15 09:20:31;;;;;;;5.40;4.23;;;11.70;90.10;;;11.32;84.06;98330.66;5068443;28;20470;-77
2024/02/15 09:23:04;;;;;;;4.57;3.67;;;11.70;89.70;;;11.23;85.03;98337.38;5063186;28;20470;-77
2024/02/15 09:25:31;;;;;;;4.60;4.20;;;11.60;89.40;;;11.29;84.25;98334.59;5053819;28;20824;-78
2024/02/15 09:27:58;;;;;;;4.17;3.73;;;11.70;89.30;;;11.22;84.12;98338.38;5046957;28;20880;-76
2024/02/15 09:30:27;;;;;;;5.70;3.70;;;11.70;88.70;;;11.56;83.52;98331.00;5062098;28;20459;-77
2024/02/15 09:32:55;;;;;;;4.40;3.73;;;11.80;89.30;;;11.50;83.08;98335.41;5069510;28;20482;-76
2024/02/15 09:35:25;;;;;;;4.40;3.50;;;11.90;88.80;;;11.60;82.07;98334.94;5050782;28;20469;-76
2024/02/15 09:37:55;;;;;;;4.20;3.70;;;12.00;88.30;;;11.88;81.32;98337.31;5068506;28;20457;-77
2024/02/15 09:40:25;;;;;;;4.10;3.63;;;12.20;88.30;;;11.37;82.22;98308.38;5050685;28;20450;-79
2024/02/15 09:42:53;;;;;;;8.40;3.87;;;12.10;87.70;;;11.96;79.68;98330.00;5068606;28;20490;-76
2024/02/15 09:45:20;;;;;;;4.53;3.77;;;12.30;87.50;;;11.93;79.93;98341.25;5067297;28;20482;-77
2024/02/15 09:47:49;;;;;;;5.10;3.40;;;12.30;87.40;;;12.07;79.48;98340.16;5051136;28;20516;-78
2024/02/15 09:50:18;;;;;;;6.00;4.17;;;12.40;87.20;;;12.14;79.23;98338.25;5068732;28;20454;-76
2024/02/15 09:52:50;;;;;;;4.47;3.40;;;12.50;87.30;;;12.56;77.09;98343.16;5067588;28;20466;-78
2024/02/15 09:55:18;;;;;;;5.70;3.30;;;12.70;86.60;;;12.76;76.33;98342.19;5061574;28;20456;-78
2024/02/15 09:57:47;;;;;;;6.20;3.37;;;12.90;86.30;;;12.93;75.74;98338.91;5049995;28;20454;-78
2024/02/15 10:00:16;;;;;;;3.30;3.00;;;13.10;86.10;;;12.92;75.67;98340.78;5068710;28;20816;-77
2024/02/15 10:02:45;;;;;;;6.00;3.60;;;13.10;85.80;;;12.52;76.87;98338.41;5067290;28;20512;-79
2024/02/15 10:05:13;;;;;;;4.40;3.50;;;12.90;85.60;;;12.61;77.60;98350.63;5062946;28;20480;-79
2024/02/15 10:07:40;;;;;;;5.63;3.60;;;12.90;86.10;;;12.51;76.57;98323.19;5067557;28;20468;-78
2024/02/15 10:10:19;;;;;;;3.50;3.20;;;13.00;85.70;;;12.43;76.71;98332.41;5066901;28;20457;-78
2024/02/15 10:12:48;;;;;;;5.87;3.40;;;12.90;85.20;;;12.63;76.83;98336.88;5040641;28;20471;-78
2024/02/15 10:15:33;;;;;;;5.07;4.10;;;13.00;85.50;;;12.57;76.72;98330.44;5062166;28;20882;-77
2024/02/15 10:18:01;;;;;;;4.60;3.40;;;13.00;85.30;;;12.70;76.61;98322.22;5063262;28;21008;-77
2024/02/15 10:20:29;;;;;;;4.20;3.80;;;13.00;85.40;;;12.40;77.24;98328.28;5066611;28;20550;-76
2024/02/15 10:23:10;;;;;;;3.70;3.40;;;12.90;85.00;;;12.67;75.86;98316.38;5066899;28;20464;-77
2024/02/15 10:25:41;;;;;;;4.90;4.27;;;13.10;85.10;;;13.44;73.96;98321.47;5067240;28;20478;-78
2024/02/15 10:28:09;;;;;;;3.87;3.33;;;13.50;85.20;;;13.03;75.36;98315.63;5064937;28;20463;-78
2024/02/15 10:30:38;;;;;;;5.33;3.40;;;13.50;84.80;;;12.93;76.09;98318.03;5067313;28;20456;-78
2024/02/15 10:33:07;;;;;;;3.30;2.90;;;13.50;84.80;;;13.17;74.71;98321.75;5065627;28;21100;-77
2024/02/15 10:35:34;;;;;;;5.73;3.00;;;13.50;84.50;;;13.07;74.94;98316.03;5060233;28;20526;-78
2024/02/15 10:38:10;;;;;;;7.20;3.53;;;13.60;84.30;;;12.99;74.62;98308.16;5065615;28;20491;-76
2024/02/15 10:40:41;;;;;;;5.50;3.27;;;13.50;84.10;;;13.12;73.58;98296.38;5048855;28;20463;-78
2024/02/15 10:43:10;;;;;;;6.40;4.17;;;13.60;84.20;;;13.72;71.91;98309.25;5065826;28;20450;-77
2024/02/15 10:45:39;;;;;;;4.80;3.20;;;13.80;84.10;;;14.15;70.79;98303.88;5063014;28;20472;-77